createdAt,value
2023-01-07T00:01:04.323Z,9.30
2023-01-07T00:03:32.467Z,9.30
2023-01-07T00:06:00.864Z,9.30
2023-01-07T00:08:32.375Z,9.30
2023-01-07T00:11:03.239Z,9.30
2023-01-07T00:13:31.457Z,9.30
2023-01-07T00:16:00.298Z,9.30
2023-01-07T00:18:28.430Z,9.30
2023-01-07T00:20:58.211Z,9.30
2023-01-07T00:23:26.491Z,9.30
2023-01-07T00:26:01.906Z,9.30
2023-01-07T00:28:30.456Z,9.30
2023-01-07T00:31:01.183Z,9.30
2023-01-07T00:33:29.448Z,9.20
2023-01-07T00:36:01.628Z,9.20
2023-01-07T00:38:30.292Z,9.20
2023-01-07T00:40:59.773Z,9.20
2023-01-07T00:43:28.161Z,9.30
2023-01-07T00:45:56.138Z,9.30
2023-01-07T00:48:25.219Z,9.30
2023-01-07T00:50:54.373Z,9.20
2023-01-07T00:53:22.851Z,9.30
2023-01-07T00:55:52.387Z,9.30
2023-01-07T00:58:24.156Z,9.30
2023-01-07T01:00:57.012Z,9.30
2023-01-07T01:03:26.902Z,9.20
2023-01-07T01:05:55.863Z,9.30
2023-01-07T01:08:23.905Z,9.20
2023-01-07T01:10:51.930Z,9.20
2023-01-07T01:13:21.287Z,9.30
2023-01-07T01:15:50.741Z,9.30
2023-01-07T01:18:18.795Z,9.30
2023-01-07T01:20:46.826Z,9.20
2023-01-07T01:23:14.833Z,9.20
2023-01-07T01:25:42.843Z,9.30
2023-01-07T01:28:11.527Z,9.20
2023-01-07T01:30:40.924Z,9.20
2023-01-07T01:33:09.948Z,9.20
2023-01-07T01:35:42.718Z,9.20
2023-01-07T01:38:10.874Z,9.20
2023-01-07T01:40:39.003Z,9.20
2023-01-07T01:43:30.722Z,9.20
2023-01-07T01:46:04.072Z,9.20
2023-01-07T01:48:34.065Z,9.20
2023-01-07T01:51:03.795Z,9.20
2023-01-07T01:53:34.997Z,9.20
2023-01-07T01:56:10.911Z,9.20
2023-01-07T01:58:42.689Z,9.20
2023-01-07T02:01:14.078Z,9.20
2023-01-07T02:03:42.305Z,9.20
2023-01-07T02:06:22.555Z,9.20
2023-01-07T02:08:51.418Z,9.30
2023-01-07T02:11:32.866Z,9.30
2023-01-07T02:14:17.401Z,9.20
2023-01-07T02:16:53.407Z,9.20
2023-01-07T02:19:57.403Z,9.20
2023-01-07T02:22:42.623Z,9.20
2023-01-07T02:25:46.075Z,9.20
2023-01-07T02:28:31.138Z,9.20
2023-01-07T02:31:27.556Z,9.20
2023-01-07T02:34:05.633Z,9.20
2023-01-07T02:36:46.161Z,9.20
2023-01-07T02:39:25.731Z,9.20
2023-01-07T02:41:59.151Z,9.20
2023-01-07T02:44:36.683Z,9.20
2023-01-07T02:47:12.945Z,9.20
2023-01-07T02:49:42.446Z,9.20
2023-01-07T02:52:22.767Z,9.20
2023-01-07T02:54:56.000Z,9.20
2023-01-07T02:57:55.865Z,9.20
2023-01-07T03:00:40.675Z,9.20
2023-01-07T03:03:25.749Z,9.20
2023-01-07T03:06:15.515Z,9.20
2023-01-07T03:09:01.953Z,9.20
2023-01-07T03:11:37.401Z,9.50
2023-01-07T03:14:10.362Z,9.20
2023-01-07T03:16:41.322Z,9.60
2023-01-07T03:19:13.699Z,9.30
2023-01-07T03:21:43.331Z,9.30
2023-01-07T03:24:11.368Z,9.20
2023-01-07T03:26:43.129Z,9.30
2023-01-07T03:29:14.808Z,9.30
2023-01-07T03:31:52.816Z,9.30
2023-01-07T03:34:24.008Z,9.30
2023-01-07T03:36:58.628Z,9.30
2023-01-07T03:39:32.196Z,9.30
2023-01-07T03:42:17.783Z,9.30
2023-01-07T03:44:46.060Z,9.20
2023-01-07T03:47:15.035Z,9.20
2023-01-07T03:49:43.091Z,9.20
2023-01-07T03:52:12.478Z,9.20
2023-01-07T03:54:40.445Z,9.20
2023-01-07T03:57:08.506Z,9.20
2023-01-07T03:59:36.523Z,9.20
2023-01-07T04:02:06.535Z,9.20
2023-01-07T04:04:34.886Z,9.20
2023-01-07T04:07:03.342Z,9.20
2023-01-07T04:09:32.901Z,9.20
2023-01-07T04:12:00.886Z,9.20
2023-01-07T04:14:29.100Z,9.20
2023-01-07T04:16:57.261Z,9.20
2023-01-07T04:19:25.394Z,9.20
2023-01-07T04:21:53.435Z,9.20
2023-01-07T04:24:21.583Z,9.20
2023-01-07T04:26:51.405Z,9.30
2023-01-07T04:29:21.024Z,9.30
2023-01-07T04:31:50.375Z,9.30
2023-01-07T04:34:18.716Z,9.30
2023-01-07T04:36:46.750Z,9.30
2023-01-07T04:39:14.946Z,9.30
2023-01-07T04:41:43.889Z,9.30
2023-01-07T04:44:15.285Z,9.20
2023-01-07T04:46:43.630Z,9.30
2023-01-07T04:49:12.007Z,9.20
2023-01-07T04:51:40.277Z,9.20
2023-01-07T04:54:08.290Z,9.20
2023-01-07T04:56:36.657Z,9.30
2023-01-07T04:59:04.822Z,9.20
2023-01-07T05:01:34.341Z,9.60
2023-01-07T05:04:02.875Z,9.20
2023-01-07T05:06:32.688Z,9.20
2023-01-07T05:09:01.667Z,9.20
2023-01-07T05:11:31.068Z,9.20
2023-01-07T05:14:01.540Z,9.20
2023-01-07T05:16:34.048Z,9.20
2023-01-07T05:19:06.641Z,9.20
2023-01-07T05:21:38.794Z,9.20
2023-01-07T05:24:07.145Z,9.20
2023-01-07T05:26:35.513Z,9.20
2023-01-07T05:29:04.519Z,9.30
2023-01-07T05:31:35.162Z,9.20
2023-01-07T05:34:04.776Z,9.20
2023-01-07T05:36:33.434Z,9.20
2023-01-07T05:39:01.780Z,9.20
2023-01-07T05:41:29.797Z,9.20
2023-01-07T05:43:57.954Z,9.10
2023-01-07T05:46:26.031Z,9.10
2023-01-07T05:48:55.456Z,9.10
2023-01-07T05:51:23.450Z,9.10
2023-01-07T05:53:51.634Z,9.10
2023-01-07T05:56:19.666Z,9.10
2023-01-07T05:58:47.696Z,9.10
2023-01-07T06:01:15.950Z,9.20
2023-01-07T06:03:44.071Z,9.10
2023-01-07T06:06:13.468Z,9.10
2023-01-07T06:08:41.560Z,9.10
2023-01-07T06:11:10.129Z,9.10
2023-01-07T06:13:38.150Z,9.10
2023-01-07T06:16:08.712Z,9.10
2023-01-07T06:18:37.125Z,9.10
2023-01-07T06:21:05.773Z,9.00
2023-01-07T06:23:35.256Z,9.00
2023-01-07T06:26:03.400Z,9.00
2023-01-07T06:28:31.436Z,9.00
2023-01-07T06:30:59.540Z,9.00
2023-01-07T06:33:27.817Z,9.00
2023-01-07T06:35:55.920Z,9.00
2023-01-07T06:38:23.922Z,9.00
2023-01-07T06:40:53.303Z,9.00
2023-01-07T06:43:21.366Z,9.00
2023-01-07T06:45:49.702Z,9.10
2023-01-07T06:48:17.902Z,9.10
2023-01-07T06:50:46.594Z,9.20
2023-01-07T06:53:14.508Z,9.20
2023-01-07T06:55:42.506Z,9.30
2023-01-07T06:58:12.848Z,9.30
2023-01-07T07:00:41.013Z,9.40
2023-01-07T07:03:09.013Z,9.40
2023-01-07T07:05:37.463Z,9.40
2023-01-07T07:08:06.378Z,9.40
2023-01-07T07:10:35.580Z,9.40
2023-01-07T07:13:03.694Z,9.30
2023-01-07T07:15:33.125Z,9.20
2023-01-07T07:18:01.148Z,9.20
2023-01-07T07:20:29.159Z,9.10
2023-01-07T07:22:57.226Z,9.10
2023-01-07T07:25:25.296Z,9.10
2023-01-07T07:27:53.544Z,9.10
2023-01-07T07:30:21.559Z,9.10
2023-01-07T07:33:12.585Z,9.10
2023-01-07T07:35:40.599Z,9.10
2023-01-07T07:38:10.328Z,9.00
2023-01-07T07:40:38.344Z,9.10
2023-01-07T07:43:11.296Z,9.00
2023-01-07T07:45:40.777Z,9.00
2023-01-07T07:48:11.109Z,9.10
2023-01-07T07:50:39.253Z,9.40
2023-01-07T07:53:09.987Z,9.40
2023-01-07T07:55:38.524Z,9.10
2023-01-07T07:58:07.295Z,9.10
2023-01-07T08:00:35.367Z,9.10
2023-01-07T08:03:03.562Z,9.10
2023-01-07T08:05:33.139Z,9.10
2023-01-07T08:08:01.596Z,9.30
2023-01-07T08:10:30.447Z,9.40
2023-01-07T08:12:58.403Z,9.50
2023-01-07T08:15:26.386Z,9.60
2023-01-07T08:18:01.478Z,9.60
2023-01-07T08:20:30.057Z,9.70
2023-01-07T08:23:01.355Z,9.70
2023-01-07T08:25:30.440Z,9.70
2023-01-07T08:28:00.040Z,9.60
2023-01-07T08:30:28.896Z,9.50
2023-01-07T08:32:57.700Z,9.60
2023-01-07T08:35:25.865Z,9.60
2023-01-07T08:37:54.263Z,9.60
2023-01-07T08:40:23.611Z,9.60
2023-01-07T08:42:51.651Z,9.60
2023-01-07T08:45:19.675Z,9.60
2023-01-07T08:47:48.514Z,9.60
2023-01-07T08:50:16.537Z,9.60
2023-01-07T08:52:47.216Z,9.70
2023-01-07T08:55:15.319Z,9.70
2023-01-07T08:57:44.668Z,9.80
2023-01-07T09:00:15.766Z,9.90
2023-01-07T09:02:44.700Z,9.90
2023-01-07T09:05:13.256Z,9.90
2023-01-07T09:07:41.517Z,10.00
2023-01-07T09:10:11.017Z,10.00
2023-01-07T09:12:39.379Z,10.00
2023-01-07T09:15:10.555Z,10.00
2023-01-07T09:17:38.833Z,10.00
2023-01-07T09:20:08.319Z,9.90
2023-01-07T09:22:37.693Z,9.90
2023-01-07T09:25:06.663Z,9.90
2023-01-07T09:27:35.019Z,9.90
2023-01-07T09:30:02.998Z,9.90
2023-01-07T09:32:32.289Z,10.10
2023-01-07T09:35:00.482Z,9.90
2023-01-07T09:37:28.620Z,9.90
2023-01-07T09:39:56.603Z,9.90
2023-01-07T09:42:33.781Z,9.90
2023-01-07T09:45:11.676Z,9.90
2023-01-07T09:47:45.040Z,9.90
2023-01-07T09:50:25.021Z,9.80
2023-01-07T09:52:58.533Z,9.90
2023-01-07T09:55:34.484Z,10.00
2023-01-07T09:58:03.112Z,9.90
2023-01-07T10:00:34.684Z,9.90
2023-01-07T10:03:17.829Z,10.00
2023-01-07T10:05:57.364Z,10.00
2023-01-07T10:08:35.900Z,10.00
2023-01-07T10:11:16.307Z,10.00
2023-01-07T10:13:55.771Z,10.10
2023-01-07T10:16:30.188Z,10.10
2023-01-07T10:19:10.318Z,10.10
2023-01-07T10:21:44.091Z,10.10
2023-01-07T10:24:21.877Z,10.10
2023-01-07T10:26:54.387Z,10.10
2023-01-07T10:29:29.593Z,10.10
2023-01-07T10:32:01.369Z,10.10
2023-01-07T10:34:37.882Z,10.10
2023-01-07T10:37:14.545Z,10.10
2023-01-07T10:39:52.433Z,10.10
2023-01-07T10:42:27.544Z,10.30
2023-01-07T10:45:22.566Z,10.20
2023-01-07T10:48:09.264Z,10.20
2023-01-07T10:50:52.398Z,10.20
2023-01-07T10:53:34.999Z,10.30
2023-01-07T10:56:11.840Z,10.30
2023-01-07T10:58:42.951Z,10.30
2023-01-07T11:01:19.288Z,10.30
2023-01-07T11:03:50.264Z,10.40
2023-01-07T11:06:24.955Z,10.40
2023-01-07T11:08:53.367Z,10.40
2023-01-07T11:11:24.133Z,10.40
2023-01-07T11:13:58.705Z,10.50
2023-01-07T11:16:30.238Z,10.50
2023-01-07T11:19:03.127Z,10.50
2023-01-07T11:21:44.135Z,10.50
2023-01-07T11:24:39.844Z,10.50
2023-01-07T11:27:15.113Z,10.40
2023-01-07T11:29:45.678Z,10.40
2023-01-07T11:32:23.092Z,10.40
2023-01-07T11:34:57.369Z,10.50
2023-01-07T11:37:36.187Z,10.50
2023-01-07T11:40:18.919Z,10.60
2023-01-07T11:42:52.280Z,10.60
2023-01-07T11:45:23.270Z,10.70
2023-01-07T11:48:01.260Z,10.70
2023-01-07T11:50:34.595Z,10.90
2023-01-07T11:53:20.956Z,10.90
2023-01-07T11:55:58.989Z,11.00
2023-01-07T11:58:31.034Z,11.10
2023-01-07T12:01:13.984Z,11.20
2023-01-07T12:03:44.055Z,11.20
2023-01-07T12:06:19.515Z,11.30
2023-01-07T12:08:56.180Z,11.40
2023-01-07T12:11:31.824Z,11.40
2023-01-07T12:14:07.477Z,11.40
2023-01-07T12:16:36.971Z,11.50
2023-01-07T12:19:31.517Z,11.40
2023-01-07T12:22:15.458Z,11.40
2023-01-07T12:25:14.397Z,11.40
2023-01-07T12:27:48.070Z,11.50
2023-01-07T12:30:30.003Z,11.50
2023-01-07T12:33:04.720Z,11.50
2023-01-07T12:35:37.948Z,11.60
2023-01-07T12:38:12.373Z,11.50
2023-01-07T12:40:47.617Z,11.50
2023-01-07T12:43:20.951Z,11.60
2023-01-07T12:45:53.623Z,11.50
2023-01-07T12:48:28.135Z,11.50
2023-01-07T12:50:58.784Z,11.60
2023-01-07T12:53:35.305Z,11.50
2023-01-07T12:56:13.603Z,11.60
2023-01-07T12:58:46.762Z,11.70
2023-01-07T13:01:26.776Z,11.80
2023-01-07T13:04:07.700Z,11.80
2023-01-07T13:06:44.496Z,11.70
2023-01-07T13:09:28.585Z,11.80
2023-01-07T13:12:40.923Z,11.70
2023-01-07T13:15:23.420Z,11.70
2023-01-07T13:17:53.756Z,11.70
2023-01-07T13:21:07.367Z,11.70
2023-01-07T13:24:02.782Z,11.60
2023-01-07T13:26:38.585Z,11.60
2023-01-07T13:29:21.781Z,11.50
2023-01-07T13:32:16.268Z,11.40
2023-01-07T13:35:00.552Z,11.20
2023-01-07T13:37:45.714Z,11.20
2023-01-07T13:40:44.716Z,11.00
2023-01-07T13:43:28.710Z,11.00
2023-01-07T13:46:02.665Z,10.90
2023-01-07T13:48:31.017Z,10.80
2023-01-07T13:51:00.790Z,10.90
2023-01-07T13:53:46.943Z,10.80
2023-01-07T13:56:40.286Z,10.80
2023-01-07T13:59:30.803Z,10.70
2023-01-07T14:02:21.530Z,10.60
2023-01-07T14:04:51.670Z,10.60
2023-01-07T14:07:21.087Z,10.70
2023-01-07T14:09:49.241Z,10.60
2023-01-07T14:12:47.778Z,10.60
2023-01-07T14:15:50.084Z,10.70
2023-01-07T14:19:04.025Z,10.80
2023-01-07T14:22:06.799Z,10.80
2023-01-07T14:24:57.288Z,10.90
2023-01-07T14:27:41.768Z,10.90
2023-01-07T14:30:20.679Z,10.90
2023-01-07T14:32:58.126Z,10.90
2023-01-07T14:35:34.962Z,10.80
2023-01-07T14:38:23.577Z,10.80
2023-01-07T14:41:05.820Z,10.70
2023-01-07T14:44:01.994Z,10.60
2023-01-07T14:46:51.455Z,10.50
2023-01-07T14:50:01.586Z,10.40
2023-01-07T14:52:54.962Z,10.40
2023-01-07T14:55:49.201Z,10.30
2023-01-07T14:58:36.221Z,10.30
2023-01-07T15:01:33.793Z,10.30
2023-01-07T15:04:45.839Z,10.20
2023-01-07T15:07:19.257Z,10.10
2023-01-07T15:10:16.409Z,10.10
2023-01-07T15:13:10.148Z,10.00
2023-01-07T15:15:58.449Z,9.90
2023-01-07T15:18:27.037Z,9.90
2023-01-07T15:21:10.242Z,9.80
2023-01-07T15:23:46.355Z,9.80
2023-01-07T15:26:20.238Z,9.80
2023-01-07T15:28:52.487Z,9.70
2023-01-07T15:31:26.960Z,9.70
2023-01-07T15:34:02.808Z,9.60
2023-01-07T15:36:31.956Z,9.60
2023-01-07T15:39:04.432Z,9.50
2023-01-07T15:41:36.077Z,9.50
2023-01-07T15:44:06.156Z,9.40
2023-01-07T15:46:34.975Z,9.40
2023-01-07T15:49:14.471Z,9.30
2023-01-07T15:51:45.547Z,9.20
2023-01-07T15:54:24.997Z,9.20
2023-01-07T15:56:58.030Z,9.10
2023-01-07T15:59:29.274Z,9.00
2023-01-07T16:02:03.658Z,9.00
2023-01-07T16:04:36.920Z,8.90
2023-01-07T16:07:05.006Z,8.80
2023-01-07T16:09:34.293Z,8.80
2023-01-07T16:12:08.975Z,8.80
2023-01-07T16:14:38.001Z,8.80
2023-01-07T16:17:14.382Z,8.80
2023-01-07T16:19:42.399Z,8.70
2023-01-07T16:22:14.803Z,8.70
2023-01-07T16:24:48.909Z,8.60
2023-01-07T16:27:22.103Z,8.60
2023-01-07T16:29:53.612Z,8.60
2023-01-07T16:32:24.324Z,8.60
2023-01-07T16:35:03.787Z,8.50
2023-01-07T16:37:32.543Z,8.50
2023-01-07T16:40:01.069Z,8.40
2023-01-07T16:42:30.578Z,8.40
2023-01-07T16:45:01.543Z,8.40
2023-01-07T16:47:31.232Z,8.30
2023-01-07T16:50:00.617Z,8.30
2023-01-07T16:52:33.608Z,8.30
2023-01-07T16:55:01.790Z,8.30
2023-01-07T16:57:38.784Z,8.20
2023-01-07T17:00:18.146Z,8.20
2023-01-07T17:02:54.341Z,8.10
2023-01-07T17:05:24.602Z,8.10
2023-01-07T17:07:55.646Z,8.10
2023-01-07T17:10:28.509Z,8.00
2023-01-07T17:13:00.225Z,8.00
2023-01-07T17:15:39.489Z,8.00
2023-01-07T17:18:30.272Z,8.00
2023-01-07T17:20:59.726Z,8.00
2023-01-07T17:23:41.149Z,8.00
2023-01-07T17:26:18.015Z,8.00
2023-01-07T17:28:49.939Z,8.00
2023-01-07T17:31:18.102Z,8.00
2023-01-07T17:33:46.530Z,7.90
2023-01-07T17:36:17.240Z,7.90
2023-01-07T17:38:45.661Z,7.90
2023-01-07T17:41:35.390Z,7.90
2023-01-07T17:44:04.979Z,7.90
2023-01-07T17:46:32.913Z,7.80
2023-01-07T17:49:01.989Z,7.80
2023-01-07T17:51:30.123Z,7.80
2023-01-07T17:53:59.907Z,7.80
2023-01-07T17:56:27.926Z,7.70
2023-01-07T17:58:56.368Z,7.70
2023-01-07T18:01:26.805Z,7.80
2023-01-07T18:03:55.882Z,7.80
2023-01-07T18:06:27.486Z,7.90
2023-01-07T18:08:56.579Z,7.90
2023-01-07T18:11:44.559Z,7.90
2023-01-07T18:14:14.491Z,8.00
2023-01-07T18:16:44.170Z,8.00
2023-01-07T18:19:13.812Z,8.00
2023-01-07T18:21:42.131Z,8.00
2023-01-07T18:24:15.289Z,8.00
2023-01-07T18:26:43.442Z,8.00
2023-01-07T18:29:14.711Z,8.10
2023-01-07T18:31:45.812Z,8.10
2023-01-07T18:34:15.885Z,8.10
2023-01-07T18:36:44.070Z,8.20
2023-01-07T18:39:19.165Z,8.30
2023-01-07T18:41:50.093Z,8.40
2023-01-07T18:44:19.051Z,8.50
2023-01-07T18:46:48.556Z,8.50
2023-01-07T18:49:16.620Z,8.60
2023-01-07T18:51:46.844Z,8.50
2023-01-07T18:54:15.498Z,8.50
2023-01-07T18:56:45.602Z,8.50
2023-01-07T18:59:14.367Z,8.40
2023-01-07T19:01:42.688Z,8.40
2023-01-07T19:04:12.563Z,8.40
2023-01-07T19:06:40.665Z,8.40
2023-01-07T19:09:08.711Z,8.40
2023-01-07T19:11:38.251Z,8.40
2023-01-07T19:14:06.373Z,8.50
2023-01-07T19:16:34.510Z,8.60
2023-01-07T19:19:02.872Z,8.70
2023-01-07T19:21:32.224Z,8.80
2023-01-07T19:24:03.610Z,9.00
2023-01-07T19:26:31.733Z,9.10
2023-01-07T19:28:59.814Z,9.10
2023-01-07T19:31:28.090Z,9.10
2023-01-07T19:33:56.523Z,9.20
2023-01-07T19:36:24.696Z,9.30
2023-01-07T19:38:54.073Z,9.30
2023-01-07T19:41:23.211Z,9.40
2023-01-07T19:43:52.882Z,9.40
2023-01-07T19:46:21.145Z,9.50
2023-01-07T19:48:49.310Z,9.50
2023-01-07T19:51:17.367Z,9.60
2023-01-07T19:53:47.663Z,9.60
2023-01-07T19:56:17.623Z,9.60
2023-01-07T19:58:45.639Z,9.60
2023-01-07T20:01:17.762Z,9.70
2023-01-07T20:03:46.460Z,9.70
2023-01-07T20:06:16.798Z,9.70
2023-01-07T20:08:45.795Z,9.70
2023-01-07T20:11:14.732Z,9.80
2023-01-07T20:13:46.055Z,9.80
2023-01-07T20:16:15.734Z,9.80
2023-01-07T20:18:45.290Z,9.90
2023-01-07T20:21:15.389Z,9.80
2023-01-07T20:23:43.912Z,9.80
2023-01-07T20:26:16.138Z,9.80
2023-01-07T20:28:45.684Z,9.80
2023-01-07T20:31:15.514Z,9.80
2023-01-07T20:33:44.584Z,9.80
2023-01-07T20:36:15.176Z,9.80
2023-01-07T20:38:44.862Z,9.80
2023-01-07T20:41:15.489Z,9.80
2023-01-07T20:43:45.259Z,9.90
2023-01-07T20:46:13.428Z,9.90
2023-01-07T20:48:41.488Z,9.90
2023-01-07T20:51:10.856Z,9.90
2023-01-07T20:53:39.035Z,9.90
2023-01-07T20:56:08.300Z,9.90
2023-01-07T20:58:38.845Z,9.80
2023-01-07T21:01:11.203Z,9.80
2023-01-07T21:03:40.942Z,9.70
2023-01-07T21:06:10.330Z,9.70
2023-01-07T21:08:38.940Z,9.70
2023-01-07T21:11:11.129Z,9.70
2023-01-07T21:13:39.580Z,9.60
2023-01-07T21:16:10.048Z,9.70
2023-01-07T21:18:38.449Z,9.70
2023-01-07T21:21:11.091Z,9.60
2023-01-07T21:23:39.126Z,9.60
2023-01-07T21:26:07.847Z,9.70
2023-01-07T21:28:36.655Z,9.70
2023-01-07T21:31:08.610Z,9.70
2023-01-07T21:33:39.018Z,9.60
2023-01-07T21:36:11.393Z,9.70
2023-01-07T21:38:39.618Z,9.60
2023-01-07T21:41:12.284Z,10.10
2023-01-07T21:43:40.556Z,9.60
2023-01-07T21:46:09.386Z,10.00
2023-01-07T21:48:40.858Z,9.60
2023-01-07T21:51:11.650Z,9.70
2023-01-07T21:53:39.775Z,9.60
2023-01-07T21:56:08.983Z,9.50
2023-01-07T21:58:37.746Z,9.50
2023-01-07T22:01:07.193Z,9.50
2023-01-07T22:03:36.744Z,9.50
2023-01-07T22:06:08.259Z,9.40
2023-01-07T22:08:36.632Z,9.40
2023-01-07T22:11:04.664Z,9.40
2023-01-07T22:13:32.741Z,9.40
2023-01-07T22:16:00.857Z,9.30
2023-01-07T22:18:28.883Z,9.30
2023-01-07T22:20:57.327Z,9.30
2023-01-07T22:23:26.873Z,9.40
2023-01-07T22:25:54.968Z,9.20
2023-01-07T22:28:24.697Z,9.20
2023-01-07T22:30:57.187Z,9.20
2023-01-07T22:33:25.224Z,9.10
2023-01-07T22:40:02.451Z,9.10
2023-01-07T22:42:33.948Z,9.00
2023-01-07T22:45:05.327Z,9.00
2023-01-07T22:47:38.814Z,9.00
2023-01-07T22:50:08.726Z,9.00
2023-01-07T22:52:37.717Z,9.00
2023-01-07T22:55:09.073Z,9.00
2023-01-07T22:57:37.604Z,9.00
2023-01-07T23:00:07.737Z,9.00
2023-01-07T23:02:35.781Z,8.90
2023-01-07T23:05:03.864Z,8.90
2023-01-07T23:07:32.269Z,8.90
2023-01-07T23:10:00.421Z,9.00
2023-01-07T23:12:29.825Z,9.00
2023-01-07T23:14:57.886Z,9.20
2023-01-07T23:17:26.288Z,9.10
2023-01-07T23:19:54.321Z,9.10
2023-01-07T23:22:22.466Z,9.10
2023-01-07T23:24:50.525Z,9.10
2023-01-07T23:27:18.526Z,9.10
2023-01-07T23:29:48.079Z,9.10
2023-01-07T23:32:16.143Z,9.20
2023-01-07T23:34:44.181Z,9.10
2023-01-07T23:37:12.288Z,9.20
2023-01-07T23:39:40.335Z,9.20
2023-01-07T23:42:08.377Z,9.20
2023-01-07T23:44:36.413Z,9.20
2023-01-07T23:47:06.080Z,9.20
2023-01-07T23:49:34.255Z,9.20
2023-01-07T23:52:02.320Z,9.20
2023-01-07T23:54:30.330Z,9.20
2023-01-07T23:56:58.414Z,9.20
2023-01-07T23:59:26.859Z,9.20
